LJCE METAR and TAF | Updated Today

LJCE METAR

Cerklje Airport

Observation time: 19 min. ago

LJCE 062000Z AUTO 00000KT 9999 NCD M05/M09 Q1038

Need help? Read our tutorial on how to read METARs or read the parsed version below.

Cerklje Airport (LJCE) METAR

  • Weather conditions on Mon, 06 Feb 2023 20:00:00 +0000 (19 min. ago):
  • Present conditions: Dry
  • Clouds: Nil cloud detected
  • Visibility: Greater than 10 km
  • Wind: Calm
  • Temperature: -5 celsius
  • Dew point: -9 celsius
  • Pressure: 1038 millibars
  • Remarks: None


Useful to know...

LJCE TAF

Cerklje Airport

TAF LJCE 061700Z 0618/0703 07005KT CAVOK
Observation time: 3:19 hr. ago
Need help? Read our tutorial on how to read TAFs or read the parsed version below.

Parsed version of TAF for Cerklje Airport (LJCE)

  • From 06 February at 18:00 UTC, to day 07 of the month at 03:00 UTC
  • Visibility: Greater than 10 km
  • Wind: 70 degrees at 5